createdAt,value
2023-10-25T00:01:29.105Z,93.90
2023-10-25T00:03:56.069Z,93.90
2023-10-25T00:06:23.151Z,93.80
2023-10-25T00:08:50.781Z,93.80
2023-10-25T00:11:18.823Z,93.80
2023-10-25T00:13:45.687Z,93.80
2023-10-25T00:16:14.600Z,93.80
2023-10-25T00:18:41.719Z,93.80
2023-10-25T00:21:08.679Z,93.80
2023-10-25T00:23:35.545Z,93.70
2023-10-25T00:26:04.581Z,93.70
2023-10-25T00:28:31.604Z,93.70
2023-10-25T00:30:59.874Z,93.70
2023-10-25T00:33:26.816Z,93.80
2023-10-25T00:35:55.347Z,93.80
2023-10-25T00:38:22.505Z,93.80
2023-10-25T00:40:51.693Z,93.80
2023-10-25T00:43:22.032Z,93.90
2023-10-25T00:46:02.123Z,94.00
2023-10-25T00:48:30.329Z,94.10
2023-10-25T00:50:57.638Z,94.00
2023-10-25T00:53:24.998Z,94.10
2023-10-25T00:55:54.017Z,94.20
2023-10-25T00:58:22.711Z,94.20
2023-10-25T01:00:50.953Z,94.20
2023-10-25T01:03:18.032Z,94.20
2023-10-25T01:05:45.169Z,94.20
2023-10-25T01:08:12.080Z,94.20
2023-10-25T01:10:40.408Z,94.20
2023-10-25T01:13:07.402Z,94.30
2023-10-25T01:15:34.439Z,94.30
2023-10-25T01:18:01.521Z,94.30
2023-10-25T01:20:28.750Z,94.30
2023-10-25T01:22:55.610Z,94.40
2023-10-25T01:25:22.595Z,94.40
2023-10-25T01:27:49.666Z,94.40
2023-10-25T01:30:16.544Z,94.40
2023-10-25T01:32:46.138Z,94.40
2023-10-25T01:35:13.050Z,94.40
2023-10-25T01:37:40.751Z,94.40
2023-10-25T01:40:08.327Z,94.40
2023-10-25T01:42:35.485Z,94.50
2023-10-25T01:45:02.475Z,94.60
2023-10-25T01:47:29.425Z,94.60
2023-10-25T01:49:56.340Z,94.70
2023-10-25T01:52:23.330Z,94.70
2023-10-25T01:54:51.888Z,94.70
2023-10-25T01:57:19.109Z,94.70
2023-10-25T01:59:46.121Z,94.70
2023-10-25T02:02:13.063Z,94.70
2023-10-25T02:04:40.257Z,94.70
2023-10-25T02:07:07.262Z,94.60
2023-10-25T02:09:34.271Z,94.60
2023-10-25T02:12:01.153Z,94.60
2023-10-25T02:14:28.110Z,94.60
2023-10-25T02:16:55.220Z,94.80
2023-10-25T02:19:22.176Z,94.60
2023-10-25T02:21:49.110Z,94.60
2023-10-25T02:24:17.005Z,94.70
2023-10-25T02:26:44.046Z,94.70
2023-10-25T02:29:10.945Z,94.70
2023-10-25T02:31:37.983Z,94.80
2023-10-25T02:34:05.309Z,94.80
2023-10-25T02:36:32.326Z,94.80
2023-10-25T02:38:59.443Z,94.80
2023-10-25T02:41:26.725Z,94.90
2023-10-25T02:43:55.094Z,94.90
2023-10-25T02:46:23.112Z,94.80
2023-10-25T02:48:53.742Z,94.80
2023-10-25T02:51:20.863Z,94.90
2023-10-25T02:53:47.917Z,94.90
2023-10-25T02:56:14.819Z,94.90
2023-10-25T02:58:41.721Z,94.90
2023-10-25T03:01:09.311Z,94.90
2023-10-25T03:03:36.369Z,94.90
2023-10-25T03:06:03.877Z,94.90
2023-10-25T03:08:31.424Z,94.90
2023-10-25T03:10:58.389Z,95.00
2023-10-25T03:13:25.620Z,95.00
2023-10-25T03:15:54.390Z,94.90
2023-10-25T03:18:21.396Z,94.90
2023-10-25T03:20:48.552Z,94.90
2023-10-25T03:23:15.531Z,94.90
2023-10-25T03:25:42.459Z,94.90
2023-10-25T03:28:09.416Z,94.90
2023-10-25T03:30:37.303Z,95.00
2023-10-25T03:33:04.319Z,95.00
2023-10-25T03:35:31.552Z,95.00
2023-10-25T03:37:58.489Z,94.90
2023-10-25T03:40:25.367Z,95.10
2023-10-25T03:42:52.342Z,95.10
2023-10-25T03:45:19.331Z,95.10
2023-10-25T03:47:46.278Z,95.10
2023-10-25T03:50:16.860Z,95.10
2023-10-25T03:52:43.748Z,95.10
2023-10-25T03:55:10.926Z,95.10
2023-10-25T03:57:37.892Z,95.10
2023-10-25T04:00:05.228Z,95.10
2023-10-25T04:02:38.998Z,95.20
2023-10-25T04:05:06.204Z,95.10
2023-10-25T04:07:33.279Z,95.10
2023-10-25T04:10:00.302Z,95.10
2023-10-25T04:12:28.956Z,95.10
2023-10-25T04:14:55.813Z,95.20
2023-10-25T04:17:22.671Z,95.20
2023-10-25T04:19:50.109Z,95.20
2023-10-25T04:22:17.030Z,95.20
2023-10-25T04:24:43.950Z,95.20
2023-10-25T04:27:10.937Z,95.20
2023-10-25T04:29:38.035Z,95.20
2023-10-25T04:32:05.490Z,95.30
2023-10-25T04:34:33.760Z,95.30
2023-10-25T04:37:00.637Z,95.30
2023-10-25T04:39:27.517Z,95.30
2023-10-25T04:41:54.945Z,95.20
2023-10-25T04:44:21.818Z,95.20
2023-10-25T04:46:48.800Z,95.20
2023-10-25T04:49:15.799Z,95.20
2023-10-25T04:51:43.063Z,95.20
2023-10-25T04:54:09.998Z,95.30
2023-10-25T04:56:36.851Z,95.30
2023-10-25T04:59:03.746Z,95.30
2023-10-25T05:01:30.680Z,95.30
2023-10-25T05:03:57.883Z,95.40
2023-10-25T05:06:25.250Z,95.40
2023-10-25T05:08:52.397Z,95.40
2023-10-25T05:11:19.411Z,95.40
2023-10-25T05:13:46.505Z,95.40
2023-10-25T05:16:14.020Z,95.40
2023-10-25T05:18:41.234Z,95.50
2023-10-25T05:21:08.888Z,95.40
2023-10-25T05:23:36.059Z,95.40
2023-10-25T05:26:04.158Z,95.40
2023-10-25T05:28:32.250Z,95.40
2023-10-25T05:31:02.875Z,95.40
2023-10-25T05:33:32.163Z,95.50
2023-10-25T05:36:00.994Z,95.50
2023-10-25T05:38:28.336Z,95.50
2023-10-25T05:40:55.328Z,95.50
2023-10-25T05:43:29.075Z,95.40
2023-10-25T05:45:57.446Z,95.50
2023-10-25T05:48:24.898Z,95.40
2023-10-25T05:50:52.250Z,95.40
2023-10-25T05:53:22.285Z,95.40
2023-10-25T05:55:49.463Z,95.40
2023-10-25T05:58:17.501Z,95.60
2023-10-25T06:00:50.146Z,95.40
2023-10-25T06:05:53.349Z,95.50
2023-10-25T06:08:20.589Z,95.50
2023-10-25T06:10:49.235Z,95.50
2023-10-25T06:13:17.418Z,95.50
2023-10-25T06:15:45.965Z,95.50
2023-10-25T06:18:13.197Z,95.60
2023-10-25T06:20:40.131Z,95.60
2023-10-25T06:23:06.961Z,95.60
2023-10-25T06:25:34.066Z,95.60
2023-10-25T06:28:01.153Z,95.70
2023-10-25T06:30:30.857Z,95.70
2023-10-25T06:33:00.697Z,95.60
2023-10-25T06:35:27.587Z,95.70
2023-10-25T06:37:54.747Z,95.60
2023-10-25T06:40:21.935Z,95.60
2023-10-25T06:42:49.152Z,95.60
2023-10-25T06:45:16.858Z,95.60
2023-10-25T06:47:44.257Z,95.60
2023-10-25T06:50:12.652Z,95.60
2023-10-25T06:52:40.064Z,95.60
2023-10-25T06:55:07.888Z,95.70
2023-10-25T06:57:35.228Z,95.70
2023-10-25T07:00:04.014Z,95.70
2023-10-25T07:02:53.271Z,95.70
2023-10-25T07:05:22.052Z,95.70
2023-10-25T07:07:51.897Z,95.60
2023-10-25T07:10:19.260Z,95.60
2023-10-25T07:12:47.061Z,95.60
2023-10-25T07:15:14.055Z,95.60
2023-10-25T07:17:41.093Z,95.60
2023-10-25T07:20:09.264Z,95.60
2023-10-25T07:22:36.604Z,95.60
2023-10-25T07:25:04.010Z,95.60
2023-10-25T07:27:30.859Z,95.60
2023-10-25T07:29:57.769Z,95.60
2023-10-25T07:32:24.669Z,95.60
2023-10-25T07:34:53.152Z,95.60
2023-10-25T07:37:20.012Z,95.60
2023-10-25T07:39:46.837Z,95.60
2023-10-25T07:42:13.732Z,95.60
2023-10-25T07:44:40.859Z,95.60
2023-10-25T07:47:08.046Z,95.60
2023-10-25T07:49:36.168Z,95.50
2023-10-25T07:52:04.592Z,95.50
2023-10-25T07:54:31.541Z,95.40
2023-10-25T07:59:28.414Z,95.40
2023-10-25T08:01:57.484Z,95.40
2023-10-25T08:04:24.418Z,95.40
2023-10-25T08:06:52.151Z,95.40
2023-10-25T08:09:19.091Z,95.40
2023-10-25T08:11:46.154Z,95.30
2023-10-25T08:14:13.019Z,95.30
2023-10-25T08:16:40.821Z,95.20
2023-10-25T08:19:08.532Z,95.20
2023-10-25T08:21:37.116Z,95.20
2023-10-25T08:24:06.482Z,95.20
2023-10-25T08:26:38.337Z,95.20
2023-10-25T08:29:06.950Z,95.20
2023-10-25T08:31:34.620Z,95.10
2023-10-25T08:34:01.943Z,95.00
2023-10-25T08:36:35.378Z,95.00
2023-10-25T08:39:03.539Z,95.10
2023-10-25T08:41:31.689Z,95.00
2023-10-25T08:43:59.668Z,95.00
2023-10-25T08:46:29.612Z,95.00
2023-10-25T08:48:56.530Z,94.90
2023-10-25T08:51:23.438Z,94.80
2023-10-25T08:53:54.797Z,94.80
2023-10-25T08:56:21.975Z,94.70
2023-10-25T08:58:48.821Z,94.70
2023-10-25T09:01:16.043Z,94.70
2023-10-25T09:03:43.396Z,94.70
2023-10-25T09:06:11.533Z,94.70
2023-10-25T09:08:39.239Z,94.70
2023-10-25T09:11:09.893Z,94.60
2023-10-25T09:13:38.282Z,94.70
2023-10-25T09:16:11.043Z,94.60
2023-10-25T09:18:38.804Z,94.50
2023-10-25T09:21:12.160Z,94.50
2023-10-25T09:23:40.482Z,94.40
2023-10-25T09:26:18.296Z,94.40
2023-10-25T09:28:48.800Z,94.40
2023-10-25T09:31:28.258Z,94.30
2023-10-25T09:33:58.567Z,94.30
2023-10-25T09:36:26.514Z,94.30
2023-10-25T09:38:53.594Z,94.30
2023-10-25T09:41:21.342Z,94.30
2023-10-25T09:43:54.930Z,94.30
2023-10-25T09:46:22.211Z,94.30
2023-10-25T09:48:56.938Z,94.30
2023-10-25T09:51:48.829Z,94.20
2023-10-25T09:54:15.767Z,94.20
2023-10-25T09:56:42.765Z,94.40
2023-10-25T09:59:12.941Z,94.20
2023-10-25T10:01:40.576Z,94.30
2023-10-25T10:04:27.776Z,94.10
2023-10-25T10:07:12.809Z,94.10
2023-10-25T10:09:48.570Z,94.00
2023-10-25T10:12:15.464Z,93.80
2023-10-25T10:14:42.750Z,93.60
2023-10-25T10:17:17.512Z,93.40
2023-10-25T10:19:49.786Z,93.20
2023-10-25T10:22:17.962Z,93.10
2023-10-25T10:24:47.800Z,93.00
2023-10-25T10:27:16.265Z,92.90
2023-10-25T10:29:43.887Z,92.80
2023-10-25T10:32:11.178Z,92.80
2023-10-25T10:34:39.279Z,92.70
2023-10-25T10:37:13.085Z,92.60
2023-10-25T10:40:05.056Z,92.50
2023-10-25T10:42:36.182Z,92.40
2023-10-25T10:45:17.112Z,92.20
2023-10-25T10:47:55.097Z,92.20
2023-10-25T10:50:23.216Z,92.30
2023-10-25T10:52:51.400Z,92.30
2023-10-25T10:55:19.570Z,92.40
2023-10-25T10:58:06.181Z,92.40
2023-10-25T11:00:33.652Z,92.30
2023-10-25T11:03:07.799Z,92.30
2023-10-25T11:05:37.935Z,92.30
2023-10-25T11:08:10.555Z,92.30
2023-10-25T11:10:38.008Z,92.30
2023-10-25T11:13:11.270Z,92.30
2023-10-25T11:15:39.475Z,92.30
2023-10-25T11:18:10.523Z,92.30
2023-10-25T11:20:39.578Z,92.30
2023-10-25T11:23:06.961Z,92.20
2023-10-25T11:25:34.022Z,92.20
2023-10-25T11:28:01.002Z,92.20
2023-10-25T11:30:27.884Z,92.10
2023-10-25T11:32:54.930Z,92.10
2023-10-25T11:35:23.780Z,92.00
2023-10-25T11:37:52.373Z,92.00
2023-10-25T11:40:20.104Z,92.30
2023-10-25T11:42:46.990Z,92.00
2023-10-25T11:45:13.978Z,91.90
2023-10-25T11:47:41.376Z,91.80
2023-10-25T11:50:09.412Z,91.70
2023-10-25T11:52:36.254Z,91.60
2023-10-25T11:55:04.348Z,91.60
2023-10-25T11:57:32.387Z,91.60
2023-10-25T11:59:59.356Z,91.70
2023-10-25T12:02:27.897Z,91.70
2023-10-25T12:04:55.506Z,91.70
2023-10-25T12:07:22.678Z,91.80
2023-10-25T12:09:51.258Z,91.90
2023-10-25T12:12:18.598Z,91.90
2023-10-25T12:14:45.717Z,92.00
2023-10-25T12:17:13.087Z,92.00
2023-10-25T12:19:43.478Z,92.00
2023-10-25T12:22:12.234Z,92.00
2023-10-25T12:24:39.575Z,91.90
2023-10-25T12:27:07.111Z,91.90
2023-10-25T12:29:34.210Z,91.70
2023-10-25T12:32:01.475Z,91.60
2023-10-25T12:34:29.796Z,91.40
2023-10-25T12:36:56.741Z,91.10
2023-10-25T12:39:23.828Z,90.90
2023-10-25T12:41:51.676Z,90.60
2023-10-25T12:44:18.664Z,90.40
2023-10-25T12:46:45.575Z,90.00
2023-10-25T12:49:13.320Z,89.20
2023-10-25T12:51:40.274Z,88.70
2023-10-25T12:54:08.814Z,88.90
2023-10-25T12:56:36.346Z,89.00
2023-10-25T12:59:03.789Z,89.10
2023-10-25T13:01:30.935Z,89.10
2023-10-25T13:03:58.044Z,89.10
2023-10-25T13:06:26.350Z,89.20
2023-10-25T13:08:53.465Z,89.40
2023-10-25T13:11:20.412Z,89.60
2023-10-25T13:13:47.322Z,89.70
2023-10-25T13:16:14.284Z,90.00
2023-10-25T13:18:41.250Z,90.10
2023-10-25T13:21:08.206Z,90.10
2023-10-25T13:23:35.805Z,90.20
2023-10-25T13:26:02.752Z,90.20
2023-10-25T13:28:29.699Z,90.30
2023-10-25T13:30:56.567Z,90.40
2023-10-25T13:33:26.662Z,90.40
2023-10-25T13:35:54.436Z,90.40
2023-10-25T13:38:21.333Z,90.30
2023-10-25T13:40:49.552Z,90.30
2023-10-25T13:43:17.254Z,90.20
2023-10-25T13:45:45.550Z,90.20
2023-10-25T13:48:13.033Z,90.20
2023-10-25T13:50:40.097Z,90.20
2023-10-25T13:53:07.109Z,90.20
2023-10-25T13:55:40.423Z,90.10
2023-10-25T13:58:15.739Z,90.10
2023-10-25T14:00:45.710Z,90.00
2023-10-25T14:03:13.193Z,90.00
2023-10-25T14:05:41.948Z,89.90
2023-10-25T14:08:12.151Z,89.80
2023-10-25T14:10:45.903Z,89.80
2023-10-25T14:13:27.801Z,89.80
2023-10-25T14:16:00.020Z,89.90
2023-10-25T14:18:27.218Z,89.90
2023-10-25T14:20:54.144Z,90.00
2023-10-25T14:23:21.111Z,90.00
2023-10-25T14:25:49.017Z,90.20
2023-10-25T14:28:16.163Z,89.90
2023-10-25T14:30:43.836Z,89.90
2023-10-25T14:33:11.531Z,89.90
2023-10-25T14:35:39.176Z,90.20
2023-10-25T14:38:06.250Z,89.80
2023-10-25T14:40:42.153Z,89.80
2023-10-25T14:43:09.301Z,89.80
2023-10-25T14:45:36.470Z,89.70
2023-10-25T14:48:04.009Z,89.90
2023-10-25T14:50:38.053Z,89.80
2023-10-25T14:53:05.243Z,89.40
2023-10-25T14:55:36.900Z,88.20
2023-10-25T14:58:04.252Z,86.50
2023-10-25T15:00:31.240Z,85.10
2023-10-25T15:02:58.512Z,83.40
2023-10-25T15:05:26.893Z,81.80
2023-10-25T15:07:56.219Z,80.60
2023-10-25T15:10:23.232Z,79.50
2023-10-25T15:12:50.160Z,78.60
2023-10-25T15:15:17.376Z,77.90
2023-10-25T15:17:47.052Z,77.20
2023-10-25T15:20:15.170Z,76.70
2023-10-25T15:22:42.313Z,76.50
2023-10-25T15:25:10.952Z,76.30
2023-10-25T15:27:38.324Z,76.30
2023-10-25T15:30:06.130Z,76.70
2023-10-25T15:32:33.276Z,77.10
2023-10-25T15:35:03.016Z,77.80
2023-10-25T15:37:29.956Z,78.70
2023-10-25T15:42:36.800Z,80.70
2023-10-25T15:45:08.597Z,81.50
2023-10-25T15:47:35.681Z,82.30
2023-10-25T15:50:02.716Z,83.10
2023-10-25T15:52:29.649Z,83.70
2023-10-25T15:54:57.455Z,84.20
2023-10-25T15:57:24.424Z,84.80
2023-10-25T15:59:51.461Z,85.20
2023-10-25T16:02:18.505Z,85.60
2023-10-25T16:04:46.536Z,86.00
2023-10-25T16:07:13.622Z,86.50
2023-10-25T16:09:40.519Z,86.90
2023-10-25T16:12:09.134Z,87.20
2023-10-25T16:14:36.036Z,87.60
2023-10-25T16:17:03.095Z,87.90
2023-10-25T16:19:31.605Z,87.90
2023-10-25T16:21:59.337Z,88.20
2023-10-25T16:24:26.323Z,88.60
2023-10-25T16:26:53.353Z,88.80
2023-10-25T16:29:20.445Z,89.40
2023-10-25T16:31:47.418Z,89.20
2023-10-25T16:34:16.864Z,89.50
2023-10-25T16:36:57.149Z,89.70
2023-10-25T16:39:31.821Z,90.00
2023-10-25T16:41:59.775Z,90.00
2023-10-25T16:44:27.129Z,90.20
2023-10-25T16:46:54.093Z,90.40
2023-10-25T16:49:22.911Z,90.70
2023-10-25T16:51:49.912Z,90.60
2023-10-25T16:54:16.848Z,90.80
2023-10-25T16:56:44.017Z,90.90
2023-10-25T16:59:11.049Z,91.00
2023-10-25T17:01:39.406Z,91.20
2023-10-25T17:04:06.763Z,91.30
2023-10-25T17:06:34.115Z,91.40
2023-10-25T17:09:01.209Z,91.50
2023-10-25T17:11:28.437Z,91.60
2023-10-25T17:13:55.398Z,91.70
2023-10-25T17:16:22.347Z,91.80
2023-10-25T17:18:51.649Z,91.90
2023-10-25T17:21:18.730Z,92.00
2023-10-25T17:23:45.962Z,92.10
2023-10-25T17:26:13.286Z,92.20
2023-10-25T17:28:40.871Z,92.20
2023-10-25T17:31:07.913Z,92.30
2023-10-25T17:33:34.870Z,92.40
2023-10-25T17:36:02.378Z,92.40
2023-10-25T17:38:29.997Z,92.40
2023-10-25T17:40:58.078Z,92.60
2023-10-25T17:43:25.307Z,92.60
2023-10-25T17:48:23.612Z,92.70
2023-10-25T17:50:51.271Z,92.70
2023-10-25T17:53:18.727Z,92.70
2023-10-25T17:55:45.674Z,92.70
2023-10-25T17:58:12.810Z,92.80
2023-10-25T18:00:44.272Z,92.90
2023-10-25T18:03:11.329Z,92.90
2023-10-25T18:05:42.022Z,92.90
2023-10-25T18:08:12.314Z,92.90
2023-10-25T18:10:42.942Z,93.00
2023-10-25T18:13:09.814Z,93.00
2023-10-25T18:15:38.148Z,93.10
2023-10-25T18:18:05.679Z,93.10
2023-10-25T18:20:33.145Z,93.20
2023-10-25T18:23:00.190Z,93.20
2023-10-25T18:25:27.585Z,93.30
2023-10-25T18:27:55.275Z,93.30
2023-10-25T18:31:56.652Z,93.40
2023-10-25T18:33:12.093Z,93.40
2023-10-25T18:35:39.198Z,93.40
2023-10-25T18:38:08.689Z,93.50
2023-10-25T18:40:35.808Z,93.50
2023-10-25T18:43:03.477Z,93.60
2023-10-25T18:45:31.067Z,93.70
2023-10-25T18:47:58.075Z,93.70
2023-10-25T18:50:27.464Z,93.70
2023-10-25T18:52:54.333Z,94.00
2023-10-25T18:55:21.250Z,93.80
2023-10-25T18:57:48.186Z,93.80
2023-10-25T19:00:20.476Z,93.80
2023-10-25T19:02:49.946Z,93.80
2023-10-25T19:06:29.539Z,93.80
2023-10-25T19:08:27.329Z,93.80
2023-10-25T19:10:52.210Z,93.80
2023-10-25T19:13:19.098Z,93.90
2023-10-25T19:15:47.075Z,94.00
2023-10-25T19:18:15.956Z,94.00
2023-10-25T19:20:43.121Z,94.20
2023-10-25T19:23:10.256Z,93.90
2023-10-25T19:25:37.800Z,93.90
2023-10-25T19:28:05.451Z,93.90
2023-10-25T19:30:34.106Z,93.90
2023-10-25T19:33:01.351Z,94.00
2023-10-25T19:35:28.326Z,94.00
2023-10-25T19:37:56.510Z,94.00
2023-10-25T19:40:23.472Z,94.00
2023-10-25T19:42:50.415Z,94.10
2023-10-25T19:45:17.340Z,94.10
2023-10-25T19:47:44.347Z,94.10
2023-10-25T19:50:11.513Z,94.20
2023-10-25T19:52:38.404Z,94.20
2023-10-25T19:55:05.637Z,94.20
2023-10-25T19:57:32.584Z,94.30
2023-10-25T20:00:00.915Z,94.30
2023-10-25T20:02:30.748Z,94.30
2023-10-25T20:07:24.736Z,94.30
2023-10-25T20:09:51.733Z,94.30
2023-10-25T20:12:18.879Z,94.30
2023-10-25T20:14:46.075Z,94.30
2023-10-25T20:17:13.178Z,94.30
2023-10-25T20:19:40.194Z,94.40
2023-10-25T20:22:07.149Z,94.40
2023-10-25T20:24:34.708Z,94.40
2023-10-25T20:27:02.077Z,94.40
2023-10-25T20:29:29.057Z,94.40
2023-10-25T20:31:58.599Z,94.50
2023-10-25T20:34:25.530Z,94.50
2023-10-25T20:36:52.518Z,94.40
2023-10-25T20:39:19.482Z,94.50
2023-10-25T20:41:48.809Z,94.50
2023-10-25T20:44:15.966Z,94.70
2023-10-25T20:46:44.540Z,94.50
2023-10-25T20:49:12.736Z,94.50
2023-10-25T20:51:39.654Z,94.40
2023-10-25T20:54:08.206Z,94.40
2023-10-25T20:56:35.520Z,94.40
2023-10-25T20:59:04.376Z,94.50
2023-10-25T21:01:32.048Z,94.50
2023-10-25T21:03:59.116Z,94.50
2023-10-25T21:06:27.657Z,94.50
2023-10-25T21:08:56.108Z,94.50
2023-10-25T21:11:23.139Z,94.50
2023-10-25T21:13:50.113Z,94.60
2023-10-25T21:16:17.136Z,94.60
2023-10-25T21:18:45.663Z,94.60
2023-10-25T21:21:13.449Z,94.60
2023-10-25T21:23:42.107Z,94.60
2023-10-25T21:26:09.362Z,94.60
2023-10-25T21:28:36.325Z,94.70
2023-10-25T21:31:08.039Z,94.70
2023-10-25T21:33:35.968Z,94.70
2023-10-25T21:36:10.473Z,94.70
2023-10-25T21:38:38.233Z,94.70
2023-10-25T21:41:06.052Z,94.70
2023-10-25T21:43:33.366Z,94.70
2023-10-25T21:46:00.394Z,94.70
2023-10-25T21:48:27.459Z,94.70
2023-10-25T21:51:04.732Z,94.70
2023-10-25T21:53:39.744Z,94.70
2023-10-25T21:56:21.497Z,94.70
2023-10-25T21:59:49.893Z,94.70
2023-10-25T22:01:44.598Z,94.70
2023-10-25T22:04:11.531Z,94.70
2023-10-25T22:06:41.822Z,94.70
2023-10-25T22:09:13.567Z,94.70
2023-10-25T22:11:42.740Z,94.70
2023-10-25T22:14:09.953Z,94.70
2023-10-25T22:16:39.011Z,94.70
2023-10-25T22:19:06.458Z,94.80
2023-10-25T22:21:36.637Z,94.80
2023-10-25T22:24:06.149Z,94.80
2023-10-25T22:26:33.756Z,94.80
2023-10-25T22:29:12.451Z,94.80
2023-10-25T22:31:42.666Z,94.80
2023-10-25T22:34:11.983Z,94.80
2023-10-25T22:36:43.350Z,94.80
2023-10-25T22:39:10.539Z,94.80
2023-10-25T22:41:37.998Z,94.80
2023-10-25T22:44:05.267Z,94.80
2023-10-25T22:46:32.466Z,94.80
2023-10-25T22:49:00.238Z,94.90
2023-10-25T22:51:28.245Z,94.80
2023-10-25T22:53:56.383Z,94.80
2023-10-25T22:56:23.346Z,94.90
2023-10-25T22:58:59.507Z,94.90
2023-10-25T23:01:30.634Z,94.90
2023-10-25T23:03:57.554Z,94.90
2023-10-25T23:06:24.687Z,94.90
2023-10-25T23:08:51.618Z,94.90
2023-10-25T23:11:18.516Z,94.90
2023-10-25T23:13:47.541Z,94.90
2023-10-25T23:16:17.922Z,94.90
2023-10-25T23:18:45.009Z,94.90
2023-10-25T23:21:12.036Z,94.90
2023-10-25T23:23:39.064Z,94.90
2023-10-25T23:26:07.170Z,94.90
2023-10-25T23:28:34.101Z,94.90
2023-10-25T23:31:08.018Z,95.00
2023-10-25T23:33:36.881Z,95.00
2023-10-25T23:36:08.013Z,95.00
2023-10-25T23:38:35.065Z,95.00
2023-10-25T23:41:02.135Z,95.00
2023-10-25T23:43:29.041Z,95.00
2023-10-25T23:45:56.405Z,95.10
2023-10-25T23:48:23.672Z,95.00
2023-10-25T23:50:52.740Z,95.00
2023-10-25T23:53:19.586Z,95.00
2023-10-25T23:55:46.564Z,95.00
2023-10-25T23:58:17.298Z,94.90
